sensor_id;sensor_type;location;lat;lon;timestamp;pressure;altitude;pressure_sealevel;temperature;humidity
15477;BME280;7840;42.702;23.296;2023-08-07T00:01:40;94509.00;;;17.34;100.00
15477;BME280;7840;42.702;23.296;2023-08-07T00:04:07;94516.66;;;17.27;100.00
15477;BME280;7840;42.702;23.296;2023-08-07T00:06:35;94513.19;;;17.27;100.00
15477;BME280;7840;42.702;23.296;2023-08-07T00:09:02;94505.56;;;17.20;100.00
15477;BME280;7840;42.702;23.296;2023-08-07T00:11:30;94513.69;;;17.15;100.00
15477;BME280;7840;42.702;23.296;2023-08-07T00:13:59;94506.69;;;17.05;100.00
15477;BME280;7840;42.702;23.296;2023-08-07T00:16:27;94508.78;;;16.94;100.00
15477;BME280;7840;42.702;23.296;2023-08-07T00:18:54;94514.94;;;17.09;100.00
15477;BME280;7840;42.702;23.296;2023-08-07T00:21:22;94510.50;;;16.90;100.00
15477;BME280;7840;42.702;23.296;2023-08-07T00:23:49;94517.53;;;16.86;100.00
15477;BME280;7840;42.702;23.296;2023-08-07T00:26:17;94515.56;;;16.78;100.00
15477;BME280;7840;42.702;23.296;2023-08-07T00:28:47;94514.34;;;16.84;100.00
15477;BME280;7840;42.702;23.296;2023-08-07T00:31:22;94518.13;;;16.83;100.00
15477;BME280;7840;42.702;23.296;2023-08-07T00:33:50;94513.97;;;16.77;100.00
15477;BME280;7840;42.702;23.296;2023-08-07T00:36:20;94527.81;;;16.65;100.00
15477;BME280;7840;42.702;23.296;2023-08-07T00:38:48;94517.41;;;16.36;100.00
15477;BME280;7840;42.702;23.296;2023-08-07T00:41:30;94518.50;;;16.35;100.00
15477;BME280;7840;42.702;23.296;2023-08-07T00:43:58;94509.69;;;16.49;100.00
15477;BME280;7840;42.702;23.296;2023-08-07T00:46:27;94514.94;;;16.54;100.00
15477;BME280;7840;42.702;23.296;2023-08-07T00:48:56;94515.22;;;16.66;100.00
15477;BME280;7840;42.702;23.296;2023-08-07T00:51:24;94514.06;;;16.72;100.00
15477;BME280;7840;42.702;23.296;2023-08-07T00:53:52;94521.09;;;16.68;100.00
15477;BME280;7840;42.702;23.296;2023-08-07T00:56:19;94524.81;;;16.39;100.00
15477;BME280;7840;42.702;23.296;2023-08-07T00:58:47;94526.19;;;16.23;100.00
15477;BME280;7840;42.702;23.296;2023-08-07T01:01:16;94522.66;;;16.28;100.00
15477;BME280;7840;42.702;23.296;2023-08-07T01:03:45;94535.91;;;16.33;100.00
15477;BME280;7840;42.702;23.296;2023-08-07T01:06:12;94534.50;;;16.08;100.00
15477;BME280;7840;42.702;23.296;2023-08-07T01:08:40;94543.59;;;16.07;100.00
15477;BME280;7840;42.702;23.296;2023-08-07T01:11:20;94544.69;;;16.06;100.00
15477;BME280;7840;42.702;23.296;2023-08-07T01:13:54;94552.38;;;15.94;100.00
15477;BME280;7840;42.702;23.296;2023-08-07T01:16:30;94554.63;;;15.86;100.00
15477;BME280;7840;42.702;23.296;2023-08-07T01:19:01;94545.34;;;15.98;100.00
15477;BME280;7840;42.702;23.296;2023-08-07T01:21:30;94548.34;;;16.10;100.00
15477;BME280;7840;42.702;23.296;2023-08-07T01:24:00;94552.50;;;16.16;100.00
15477;BME280;7840;42.702;23.296;2023-08-07T01:26:28;94548.19;;;16.20;100.00
15477;BME280;7840;42.702;23.296;2023-08-07T01:29:02;94548.19;;;16.20;100.00
15477;BME280;7840;42.702;23.296;2023-08-07T01:31:34;94556.69;;;16.22;100.00
15477;BME280;7840;42.702;23.296;2023-08-07T01:34:05;94549.13;;;16.10;100.00
15477;BME280;7840;42.702;23.296;2023-08-07T01:36:35;94555.53;;;15.96;100.00
15477;BME280;7840;42.702;23.296;2023-08-07T01:39:08;94537.06;;;15.99;100.00
15477;BME280;7840;42.702;23.296;2023-08-07T01:41:36;94541.72;;;16.07;100.00
15477;BME280;7840;42.702;23.296;2023-08-07T01:44:04;94545.00;;;16.18;100.00
15477;BME280;7840;42.702;23.296;2023-08-07T01:46:32;94537.56;;;16.15;100.00
15477;BME280;7840;42.702;23.296;2023-08-07T01:48:59;94544.50;;;16.16;100.00
15477;BME280;7840;42.702;23.296;2023-08-07T01:51:27;94542.84;;;16.20;100.00
15477;BME280;7840;42.702;23.296;2023-08-07T01:53:54;94548.25;;;16.15;100.00
15477;BME280;7840;42.702;23.296;2023-08-07T01:56:23;94539.16;;;16.16;100.00
15477;BME280;7840;42.702;23.296;2023-08-07T01:58:50;94535.31;;;16.22;100.00
15477;BME280;7840;42.702;23.296;2023-08-07T02:01:18;94540.25;;;16.15;100.00
15477;BME280;7840;42.702;23.296;2023-08-07T02:03:45;94544.41;;;16.21;100.00
15477;BME280;7840;42.702;23.296;2023-08-07T02:06:13;94541.59;;;16.12;100.00
15477;BME280;7840;42.702;23.296;2023-08-07T02:08:40;94548.34;;;16.10;100.00
15477;BME280;7840;42.702;23.296;2023-08-07T02:11:08;94554.97;;;16.12;100.00
15477;BME280;7840;42.702;23.296;2023-08-07T02:13:37;94555.88;;;16.08;100.00
15477;BME280;7840;42.702;23.296;2023-08-07T02:16:04;94563.38;;;16.06;100.00
15477;BME280;7840;42.702;23.296;2023-08-07T02:18:32;94565.53;;;16.04;100.00
15477;BME280;7840;42.702;23.296;2023-08-07T02:20:59;94567.41;;;16.03;100.00
15477;BME280;7840;42.702;23.296;2023-08-07T02:23:27;94564.75;;;16.03;100.00
15477;BME280;7840;42.702;23.296;2023-08-07T02:25:55;94572.47;;;16.05;100.00
15477;BME280;7840;42.702;23.296;2023-08-07T02:28:22;94569.31;;;16.03;100.00
15477;BME280;7840;42.702;23.296;2023-08-07T02:30:51;94568.88;;;15.96;100.00
15477;BME280;7840;42.702;23.296;2023-08-07T02:33:20;94569.97;;;15.95;100.00
15477;BME280;7840;42.702;23.296;2023-08-07T02:35:48;94575.44;;;16.03;100.00
15477;BME280;7840;42.702;23.296;2023-08-07T02:38:17;94574.66;;;16.03;100.00
15477;BME280;7840;42.702;23.296;2023-08-07T02:40:44;94576.59;;;15.97;100.00
15477;BME280;7840;42.702;23.296;2023-08-07T02:43:12;94574.41;;;15.85;100.00
15477;BME280;7840;42.702;23.296;2023-08-07T02:45:39;94571.59;;;15.77;100.00
15477;BME280;7840;42.702;23.296;2023-08-07T02:48:08;94574.41;;;15.85;100.00
15477;BME280;7840;42.702;23.296;2023-08-07T02:50:36;94576.56;;;15.83;100.00
15477;BME280;7840;42.702;23.296;2023-08-07T02:53:03;94577.34;;;15.84;100.00
15477;BME280;7840;42.702;23.296;2023-08-07T02:55:31;94578.06;;;15.90;100.00
15477;BME280;7840;42.702;23.296;2023-08-07T02:57:58;94576.56;;;15.83;100.00
15477;BME280;7840;42.702;23.296;2023-08-07T03:00:26;94584.66;;;15.78;100.00
15477;BME280;7840;42.702;23.296;2023-08-07T03:02:53;94585.59;;;15.69;100.00
15477;BME280;7840;42.702;23.296;2023-08-07T03:05:22;94591.59;;;15.79;100.00
15477;BME280;7840;42.702;23.296;2023-08-07T03:07:50;94596.28;;;15.88;100.00
15477;BME280;7840;42.702;23.296;2023-08-07T03:10:17;94597.91;;;15.83;100.00
15477;BME280;7840;42.702;23.296;2023-08-07T03:12:45;94588.19;;;15.74;100.00
15477;BME280;7840;42.702;23.296;2023-08-07T03:15:13;94595.47;;;15.68;100.00
15477;BME280;7840;42.702;23.296;2023-08-07T03:17:40;94601.84;;;15.72;100.00
15477;BME280;7840;42.702;23.296;2023-08-07T03:20:08;94599.66;;;15.74;100.00
15477;BME280;7840;42.702;23.296;2023-08-07T03:22:38;94605.72;;;15.61;100.00
15477;BME280;7840;42.702;23.296;2023-08-07T03:25:09;94601.53;;;15.55;100.00
15477;BME280;7840;42.702;23.296;2023-08-07T03:27:37;94599.88;;;15.59;100.00
15477;BME280;7840;42.702;23.296;2023-08-07T03:30:11;94609.53;;;15.55;100.00
15477;BME280;7840;42.702;23.296;2023-08-07T03:32:39;94608.16;;;15.57;100.00
15477;BME280;7840;42.702;23.296;2023-08-07T03:35:08;94620.28;;;15.50;100.00
15477;BME280;7840;42.702;23.296;2023-08-07T03:37:37;94628.72;;;15.57;100.00
15477;BME280;7840;42.702;23.296;2023-08-07T03:40:06;94634.69;;;15.49;100.00
15477;BME280;7840;42.702;23.296;2023-08-07T03:42:46;94640.47;;;15.56;100.00
15477;BME280;7840;42.702;23.296;2023-08-07T03:45:17;94644.22;;;15.55;100.00
15477;BME280;7840;42.702;23.296;2023-08-07T03:47:45;94643.22;;;15.51;100.00
15477;BME280;7840;42.702;23.296;2023-08-07T03:50:24;94639.91;;;15.59;100.00
15477;BME280;7840;42.702;23.296;2023-08-07T03:52:53;94644.69;;;15.62;100.00
15477;BME280;7840;42.702;23.296;2023-08-07T03:55:21;94654.66;;;15.75;100.00
15477;BME280;7840;42.702;23.296;2023-08-07T03:57:48;94652.16;;;15.65;100.00
15477;BME280;7840;42.702;23.296;2023-08-07T04:00:16;94655.16;;;15.77;100.00
15477;BME280;7840;42.702;23.296;2023-08-07T04:02:46;94650.34;;;15.79;100.00
15477;BME280;7840;42.702;23.296;2023-08-07T04:05:13;94661.88;;;15.94;100.00
15477;BME280;7840;42.702;23.296;2023-08-07T04:07:41;94667.53;;;15.92;100.00
15477;BME280;7840;42.702;23.296;2023-08-07T04:10:10;94667.59;;;15.87;100.00
15477;BME280;7840;42.702;23.296;2023-08-07T04:12:38;94666.13;;;15.95;100.00
15477;BME280;7840;42.702;23.296;2023-08-07T04:15:06;94668.16;;;16.03;100.00
15477;BME280;7840;42.702;23.296;2023-08-07T04:17:35;94665.06;;;15.96;100.00
15477;BME280;7840;42.702;23.296;2023-08-07T04:20:03;94673.00;;;16.01;100.00
15477;BME280;7840;42.702;23.296;2023-08-07T04:22:31;94680.34;;;16.09;100.00
15477;BME280;7840;42.702;23.296;2023-08-07T04:24:59;94685.69;;;16.09;100.00
15477;BME280;7840;42.702;23.296;2023-08-07T04:27:28;94685.31;;;16.16;100.00
15477;BME280;7840;42.702;23.296;2023-08-07T04:29:56;94680.59;;;16.26;100.00
15477;BME280;7840;42.702;23.296;2023-08-07T04:32:24;94694.50;;;16.28;100.00
15477;BME280;7840;42.702;23.296;2023-08-07T04:34:51;94689.50;;;16.40;100.00
15477;BME280;7840;42.702;23.296;2023-08-07T04:37:19;94689.97;;;16.42;100.00
15477;BME280;7840;42.702;23.296;2023-08-07T04:39:46;94687.81;;;16.45;100.00
15477;BME280;7840;42.702;23.296;2023-08-07T04:42:14;94691.16;;;16.36;100.00
15477;BME280;7840;42.702;23.296;2023-08-07T04:44:43;94689.22;;;16.56;100.00
15477;BME280;7840;42.702;23.296;2023-08-07T04:47:10;94691.91;;;16.75;100.00
15477;BME280;7840;42.702;23.296;2023-08-07T04:49:38;94692.38;;;16.77;100.00
15477;BME280;7840;42.702;23.296;2023-08-07T04:52:06;94699.25;;;16.83;100.00
15477;BME280;7840;42.702;23.296;2023-08-07T04:54:33;94695.25;;;16.80;100.00
15477;BME280;7840;42.702;23.296;2023-08-07T04:57:01;94691.91;;;16.75;100.00
15477;BME280;7840;42.702;23.296;2023-08-07T04:59:28;94689.97;;;16.42;100.00
15477;BME280;7840;42.702;23.296;2023-08-07T05:01:59;94695.50;;;16.65;100.00
15477;BME280;7840;42.702;23.296;2023-08-07T05:04:26;94686.81;;;16.40;100.00
15477;BME280;7840;42.702;23.296;2023-08-07T05:06:54;94686.81;;;16.40;100.00
15477;BME280;7840;42.702;23.296;2023-08-07T05:09:21;94686.06;;;16.86;100.00
15477;BME280;7840;42.702;23.296;2023-08-07T05:11:49;94681.72;;;17.18;100.00
15477;BME280;7840;42.702;23.296;2023-08-07T05:14:16;94680.84;;;17.09;100.00
15477;BME280;7840;42.702;23.296;2023-08-07T05:16:44;94677.47;;;17.03;100.00
15477;BME280;7840;42.702;23.296;2023-08-07T05:19:13;94680.63;;;16.91;100.00
15477;BME280;7840;42.702;23.296;2023-08-07T05:21:40;94676.94;;;17.01;100.00
15477;BME280;7840;42.702;23.296;2023-08-07T05:24:08;94680.31;;;17.34;100.00
15477;BME280;7840;42.702;23.296;2023-08-07T05:26:35;94684.09;;;17.33;100.00
15477;BME280;7840;42.702;23.296;2023-08-07T05:29:03;94686.38;;;17.26;100.00
15477;BME280;7840;42.702;23.296;2023-08-07T05:31:30;94687.56;;;17.20;100.00
15477;BME280;7840;42.702;23.296;2023-08-07T05:33:58;94681.25;;;17.16;100.00
15477;BME280;7840;42.702;23.296;2023-08-07T05:36:26;94674.66;;;17.08;100.00
15477;BME280;7840;42.702;23.296;2023-08-07T05:38:56;94680.25;;;17.26;100.00
15477;BME280;7840;42.702;23.296;2023-08-07T05:41:23;94693.13;;;17.37;100.00
15477;BME280;7840;42.702;23.296;2023-08-07T05:43:51;94694.72;;;17.38;100.00
15477;BME280;7840;42.702;23.296;2023-08-07T05:46:18;94697.69;;;17.37;100.00
15477;BME280;7840;42.702;23.296;2023-08-07T05:48:46;94699.28;;;17.52;100.00
15477;BME280;7840;42.702;23.296;2023-08-07T05:51:16;94693.63;;;17.39;100.00
15477;BME280;7840;42.702;23.296;2023-08-07T05:53:45;94695.88;;;17.60;100.00
15477;BME280;7840;42.702;23.296;2023-08-07T05:56:12;94695.66;;;17.84;100.00
15477;BME280;7840;42.702;23.296;2023-08-07T05:58:56;94697.72;;;18.00;100.00
15477;BME280;7840;42.702;23.296;2023-08-07T06:01:24;94696.63;;;18.01;100.00
15477;BME280;7840;42.702;23.296;2023-08-07T06:03:56;94691.88;;;17.98;100.00
15477;BME280;7840;42.702;23.296;2023-08-07T06:06:27;94689.75;;;18.09;100.00
15477;BME280;7840;42.702;23.296;2023-08-07T06:08:57;94689.81;;;18.18;100.00
15477;BME280;7840;42.702;23.296;2023-08-07T06:11:25;94688.47;;;18.07;100.00
15477;BME280;7840;42.702;23.296;2023-08-07T06:13:54;94678.88;;;18.28;100.00
15477;BME280;7840;42.702;23.296;2023-08-07T06:16:22;94680.75;;;18.50;100.00
15477;BME280;7840;42.702;23.296;2023-08-07T06:18:49;94681.00;;;18.62;100.00
15477;BME280;7840;42.702;23.296;2023-08-07T06:21:16;94677.16;;;18.54;100.00
15477;BME280;7840;42.702;23.296;2023-08-07T06:23:43;94684.03;;;18.24;100.00
15477;BME280;7840;42.702;23.296;2023-08-07T06:26:12;94681.03;;;18.40;100.00
15477;BME280;7840;42.702;23.296;2023-08-07T06:28:39;94680.22;;;18.62;100.00
15477;BME280;7840;42.702;23.296;2023-08-07T06:31:08;94683.72;;;18.93;100.00
15477;BME280;7840;42.702;23.296;2023-08-07T06:33:36;94675.94;;;18.83;100.00
15477;BME280;7840;42.702;23.296;2023-08-07T06:36:04;94669.81;;;19.31;100.00
15477;BME280;7840;42.702;23.296;2023-08-07T06:38:32;94679.47;;;19.40;100.00
15477;BME280;7840;42.702;23.296;2023-08-07T06:40:59;94684.81;;;19.72;100.00
15477;BME280;7840;42.702;23.296;2023-08-07T06:43:28;94694.13;;;19.65;100.00
15477;BME280;7840;42.702;23.296;2023-08-07T06:45:56;94693.81;;;19.76;100.00
15477;BME280;7840;42.702;23.296;2023-08-07T06:48:24;94701.06;;;19.58;100.00
15477;BME280;7840;42.702;23.296;2023-08-07T06:50:52;94703.28;;;19.25;100.00
15477;BME280;7840;42.702;23.296;2023-08-07T06:53:20;94702.06;;;19.71;100.00
15477;BME280;7840;42.702;23.296;2023-08-07T06:55:47;94700.16;;;19.80;100.00
15477;BME280;7840;42.702;23.296;2023-08-07T06:58:15;94698.25;;;19.72;100.00
15477;BME280;7840;42.702;23.296;2023-08-07T07:00:44;94704.19;;;19.51;100.00
15477;BME280;7840;42.702;23.296;2023-08-07T07:03:12;94690.63;;;19.56;100.00
15477;BME280;7840;42.702;23.296;2023-08-07T07:05:40;94699.38;;;19.71;100.00
15477;BME280;7840;42.702;23.296;2023-08-07T07:08:09;94698.13;;;19.77;100.00
15477;BME280;7840;42.702;23.296;2023-08-07T07:10:36;94697.03;;;19.95;100.00
15477;BME280;7840;42.702;23.296;2023-08-07T07:13:04;94697.34;;;19.85;100.00
15477;BME280;7840;42.702;23.296;2023-08-07T07:15:32;94694.19;;;20.00;100.00
15477;BME280;7840;42.702;23.296;2023-08-07T07:18:00;94690.41;;;20.18;100.00
15477;BME280;7840;42.702;23.296;2023-08-07T07:20:29;94683.75;;;20.42;96.48
15477;BME280;7840;42.702;23.296;2023-08-07T07:22:56;94691.81;;;20.76;88.93
15477;BME280;7840;42.702;23.296;2023-08-07T07:25:24;94690.06;;;20.81;92.33
15477;BME280;7840;42.702;23.296;2023-08-07T07:27:51;94696.75;;;20.40;94.09
15477;BME280;7840;42.702;23.296;2023-08-07T07:30:20;94688.34;;;20.15;92.77
15477;BME280;7840;42.702;23.296;2023-08-07T07:32:49;94689.44;;;20.75;92.92
15477;BME280;7840;42.702;23.296;2023-08-07T07:35:21;94686.00;;;21.21;90.98
15477;BME280;7840;42.702;23.296;2023-08-07T07:37:48;94678.13;;;21.08;84.30
15477;BME280;7840;42.702;23.296;2023-08-07T07:40:16;94681.19;;;20.89;86.75
15477;BME280;7840;42.702;23.296;2023-08-07T07:42:43;94687.91;;;21.12;89.11
15477;BME280;7840;42.702;23.296;2023-08-07T07:45:11;94673.41;;;21.43;86.77
15477;BME280;7840;42.702;23.296;2023-08-07T07:47:38;94686.78;;;21.30;85.97
15477;BME280;7840;42.702;23.296;2023-08-07T07:50:07;94686.44;;;21.23;86.21
15477;BME280;7840;42.702;23.296;2023-08-07T07:52:36;94676.63;;;21.27;87.04
15477;BME280;7840;42.702;23.296;2023-08-07T07:55:04;94690.75;;;21.16;86.98
15477;BME280;7840;42.702;23.296;2023-08-07T07:57:39;94680.00;;;21.54;83.15
15477;BME280;7840;42.702;23.296;2023-08-07T08:00:07;94685.41;;;21.75;76.91
15477;BME280;7840;42.702;23.296;2023-08-07T08:02:36;94677.91;;;21.21;74.16
15477;BME280;7840;42.702;23.296;2023-08-07T08:05:05;94674.97;;;21.73;74.90
15477;BME280;7840;42.702;23.296;2023-08-07T08:07:33;94671.31;;;21.99;75.14
15477;BME280;7840;42.702;23.296;2023-08-07T08:10:02;94670.50;;;21.48;75.63
15477;BME280;7840;42.702;23.296;2023-08-07T08:12:30;94671.44;;;21.52;79.12
15477;BME280;7840;42.702;23.296;2023-08-07T08:14:58;94678.34;;;21.70;73.41
15477;BME280;7840;42.702;23.296;2023-08-07T08:17:26;94659.38;;;22.08;73.54
15477;BME280;7840;42.702;23.296;2023-08-07T08:19:54;94664.81;;;22.42;72.88
15477;BME280;7840;42.702;23.296;2023-08-07T08:22:21;94666.78;;;21.91;74.07
15477;BME280;7840;42.702;23.296;2023-08-07T08:24:49;94650.38;;;22.25;74.92
15477;BME280;7840;42.702;23.296;2023-08-07T08:27:18;94646.28;;;22.73;72.73
15477;BME280;7840;42.702;23.296;2023-08-07T08:29:45;94660.78;;;23.26;70.54
15477;BME280;7840;42.702;23.296;2023-08-07T08:32:13;94655.03;;;23.15;67.25
15477;BME280;7840;42.702;23.296;2023-08-07T08:34:40;94648.34;;;22.88;68.32
15477;BME280;7840;42.702;23.296;2023-08-07T08:37:07;94643.00;;;23.25;64.37
15477;BME280;7840;42.702;23.296;2023-08-07T08:39:37;94649.03;;;22.64;67.06
15477;BME280;7840;42.702;23.296;2023-08-07T08:42:10;94632.19;;;22.67;69.07
15477;BME280;7840;42.702;23.296;2023-08-07T08:44:46;94639.38;;;23.58;64.99
15477;BME280;7840;42.702;23.296;2023-08-07T08:47:15;94637.94;;;23.24;64.30
15477;BME280;7840;42.702;23.296;2023-08-07T08:49:47;94647.03;;;23.19;63.13
15477;BME280;7840;42.702;23.296;2023-08-07T08:52:15;94641.88;;;23.14;63.95
15477;BME280;7840;42.702;23.296;2023-08-07T08:54:43;94647.38;;;23.17;65.86
15477;BME280;7840;42.702;23.296;2023-08-07T08:57:12;94640.97;;;23.10;63.88
15477;BME280;7840;42.702;23.296;2023-08-07T08:59:42;94639.97;;;23.76;61.16
15477;BME280;7840;42.702;23.296;2023-08-07T09:02:09;94631.38;;;24.26;61.61
15477;BME280;7840;42.702;23.296;2023-08-07T09:04:39;94640.28;;;24.39;61.63
15477;BME280;7840;42.702;23.296;2023-08-07T09:07:08;94649.13;;;24.23;60.88
15477;BME280;7840;42.702;23.296;2023-08-07T09:09:36;94639.88;;;24.52;61.58
15477;BME280;7840;42.702;23.296;2023-08-07T09:12:06;94633.09;;;24.59;62.35
15477;BME280;7840;42.702;23.296;2023-08-07T09:14:38;94642.47;;;25.21;59.74
15477;BME280;7840;42.702;23.296;2023-08-07T09:17:09;94635.81;;;25.34;56.45
15477;BME280;7840;42.702;23.296;2023-08-07T09:19:39;94625.75;;;25.34;56.92
15477;BME280;7840;42.702;23.296;2023-08-07T09:22:06;94617.44;;;26.13;55.68
15477;BME280;7840;42.702;23.296;2023-08-07T09:24:35;94619.34;;;26.29;54.41
15477;BME280;7840;42.702;23.296;2023-08-07T09:27:03;94610.72;;;24.62;59.07
15477;BME280;7840;42.702;23.296;2023-08-07T09:29:34;94616.84;;;24.59;60.63
15477;BME280;7840;42.702;23.296;2023-08-07T09:32:08;94617.59;;;24.43;59.47
15477;BME280;7840;42.702;23.296;2023-08-07T09:34:36;94605.25;;;24.90;60.42
15477;BME280;7840;42.702;23.296;2023-08-07T09:37:06;94614.88;;;25.82;60.16
15477;BME280;7840;42.702;23.296;2023-08-07T09:39:34;94613.31;;;25.49;57.26
15477;BME280;7840;42.702;23.296;2023-08-07T09:42:02;94610.41;;;24.79;59.08
15477;BME280;7840;42.702;23.296;2023-08-07T09:44:36;94613.88;;;24.64;59.47
15477;BME280;7840;42.702;23.296;2023-08-07T09:47:13;94606.94;;;24.78;59.25
15477;BME280;7840;42.702;23.296;2023-08-07T09:49:41;94610.44;;;25.42;56.63
15477;BME280;7840;42.702;23.296;2023-08-07T09:52:10;94603.06;;;25.58;53.82
15477;BME280;7840;42.702;23.296;2023-08-07T09:54:39;94609.44;;;25.66;54.68
15477;BME280;7840;42.702;23.296;2023-08-07T09:57:07;94604.59;;;26.10;51.56
15477;BME280;7840;42.702;23.296;2023-08-07T09:59:35;94604.88;;;26.05;52.22
15477;BME280;7840;42.702;23.296;2023-08-07T10:02:03;94609.53;;;25.70;50.57
15477;BME280;7840;42.702;23.296;2023-08-07T10:04:33;94615.16;;;25.96;52.26
15477;BME280;7840;42.702;23.296;2023-08-07T10:07:02;94616.47;;;25.51;51.80
15477;BME280;7840;42.702;23.296;2023-08-07T10:09:29;94612.84;;;25.79;52.64
15477;BME280;7840;42.702;23.296;2023-08-07T10:11:58;94615.03;;;26.08;50.38
15477;BME280;7840;42.702;23.296;2023-08-07T10:14:26;94603.13;;;26.52;52.27
15477;BME280;7840;42.702;23.296;2023-08-07T10:16:54;94606.72;;;26.79;49.23
15477;BME280;7840;42.702;23.296;2023-08-07T10:19:22;94609.63;;;26.08;49.67
15477;BME280;7840;42.702;23.296;2023-08-07T10:21:51;94603.03;;;26.67;49.05
15477;BME280;7840;42.702;23.296;2023-08-07T10:24:20;94608.16;;;26.34;47.76
15477;BME280;7840;42.702;23.296;2023-08-07T10:26:49;94603.03;;;26.48;50.01
15477;BME280;7840;42.702;23.296;2023-08-07T10:29:18;94596.41;;;26.88;50.77
15477;BME280;7840;42.702;23.296;2023-08-07T10:31:49;94610.84;;;27.11;48.90
15477;BME280;7840;42.702;23.296;2023-08-07T10:34:17;94608.41;;;27.06;51.49
15477;BME280;7840;42.702;23.296;2023-08-07T10:36:45;94602.25;;;26.48;50.75
15477;BME280;7840;42.702;23.296;2023-08-07T10:39:15;94590.69;;;27.16;50.02
15477;BME280;7840;42.702;23.296;2023-08-07T10:41:46;94586.16;;;28.03;48.25
15477;BME280;7840;42.702;23.296;2023-08-07T10:44:20;94588.44;;;27.71;48.63
15477;BME280;7840;42.702;23.296;2023-08-07T10:46:49;94588.03;;;27.19;50.09
15477;BME280;7840;42.702;23.296;2023-08-07T10:49:34;94583.00;;;27.21;49.50
15477;BME280;7840;42.702;23.296;2023-08-07T10:52:09;94579.69;;;27.09;49.05
15477;BME280;7840;42.702;23.296;2023-08-07T10:54:39;94577.16;;;26.54;52.30
15477;BME280;7840;42.702;23.296;2023-08-07T10:57:14;94572.88;;;27.45;49.70
15477;BME280;7840;42.702;23.296;2023-08-07T10:59:48;94568.31;;;28.36;48.86
15477;BME280;7840;42.702;23.296;2023-08-07T11:02:23;94574.19;;;27.28;48.14
15477;BME280;7840;42.702;23.296;2023-08-07T11:04:52;94569.47;;;27.02;48.82
15477;BME280;7840;42.702;23.296;2023-08-07T11:07:24;94576.16;;;27.31;47.33
15477;BME280;7840;42.702;23.296;2023-08-07T11:09:53;94558.81;;;27.66;49.55
15477;BME280;7840;42.702;23.296;2023-08-07T11:12:24;94555.53;;;28.43;46.06
15477;BME280;7840;42.702;23.296;2023-08-07T11:14:51;94552.50;;;28.18;44.57
15477;BME280;7840;42.702;23.296;2023-08-07T11:17:24;94559.31;;;26.99;48.40
15477;BME280;7840;42.702;23.296;2023-08-07T11:19:53;94547.66;;;26.76;48.71
15477;BME280;7840;42.702;23.296;2023-08-07T11:22:22;94548.25;;;26.88;49.16
15477;BME280;7840;42.702;23.296;2023-08-07T11:24:50;94543.38;;;26.97;48.35
15477;BME280;7840;42.702;23.296;2023-08-07T11:27:35;94537.72;;;27.06;50.64
15477;BME280;7840;42.702;23.296;2023-08-07T11:30:03;94540.47;;;26.87;49.09
15477;BME280;7840;42.702;23.296;2023-08-07T11:32:31;94551.94;;;27.22;49.39
15477;BME280;7840;42.702;23.296;2023-08-07T11:34:59;94542.41;;;27.09;49.73
15477;BME280;7840;42.702;23.296;2023-08-07T11:37:29;94541.88;;;26.77;51.42
15477;BME280;7840;42.702;23.296;2023-08-07T11:40:01;94547.56;;;26.91;50.86
15477;BME280;7840;42.702;23.296;2023-08-07T11:42:29;94534.56;;;26.58;50.87
15477;BME280;7840;42.702;23.296;2023-08-07T11:44:58;94534.84;;;26.34;53.00
15477;BME280;7840;42.702;23.296;2023-08-07T11:47:25;94538.72;;;26.75;50.10
15477;BME280;7840;42.702;23.296;2023-08-07T11:49:53;94528.25;;;26.54;51.56
15477;BME280;7840;42.702;23.296;2023-08-07T11:52:21;94535.66;;;26.77;49.96
15477;BME280;7840;42.702;23.296;2023-08-07T11:54:49;94532.03;;;27.41;51.32
15477;BME280;7840;42.702;23.296;2023-08-07T11:57:18;94536.53;;;28.50;48.89
15477;BME280;7840;42.702;23.296;2023-08-07T11:59:53;94538.28;;;29.61;45.48
15477;BME280;7840;42.702;23.296;2023-08-07T12:02:26;94529.06;;;29.87;42.56
15477;BME280;7840;42.702;23.296;2023-08-07T12:04:58;94524.28;;;29.11;44.71
15477;BME280;7840;42.702;23.296;2023-08-07T12:07:26;94523.56;;;27.73;47.23
15477;BME280;7840;42.702;23.296;2023-08-07T12:09:54;94526.41;;;27.31;48.33
15477;BME280;7840;42.702;23.296;2023-08-07T12:12:22;94522.03;;;27.22;49.69
15477;BME280;7840;42.702;23.296;2023-08-07T12:50:38;94514.56;;;27.16;54.50
15477;BME280;7840;42.702;23.296;2023-08-07T12:53:06;94528.50;;;26.68;57.01
15477;BME280;7840;42.702;23.296;2023-08-07T12:55:36;94535.53;;;26.92;55.69
15477;BME280;7840;42.702;23.296;2023-08-07T12:58:04;94524.16;;;26.87;57.75
15477;BME280;7840;42.702;23.296;2023-08-07T13:00:31;94532.06;;;27.45;55.86
15477;BME280;7840;42.702;23.296;2023-08-07T13:02:59;94521.25;;;26.99;56.63
15477;BME280;7840;42.702;23.296;2023-08-07T13:05:29;94531.97;;;27.11;55.69
15477;BME280;7840;42.702;23.296;2023-08-07T13:07:58;94526.25;;;26.70;57.49
15477;BME280;7840;42.702;23.296;2023-08-07T13:10:26;94544.34;;;26.86;58.12
15477;BME280;7840;42.702;23.296;2023-08-07T13:12:57;94548.81;;;26.75;57.33
15477;BME280;7840;42.702;23.296;2023-08-07T13:15:25;94544.88;;;26.30;58.85
15477;BME280;7840;42.702;23.296;2023-08-07T13:17:52;94554.63;;;25.41;61.89
15477;BME280;7840;42.702;23.296;2023-08-07T13:20:20;94544.53;;;25.57;63.33
15477;BME280;7840;42.702;23.296;2023-08-07T13:22:47;94555.44;;;25.77;62.50
15477;BME280;7840;42.702;23.296;2023-08-07T13:25:16;94559.59;;;26.29;61.63
15477;BME280;7840;42.702;23.296;2023-08-07T13:27:44;94557.03;;;26.36;60.51
15477;BME280;7840;42.702;23.296;2023-08-07T13:30:11;94554.88;;;26.26;60.17
15477;BME280;7840;42.702;23.296;2023-08-07T13:32:39;94571.53;;;26.05;61.53
15477;BME280;7840;42.702;23.296;2023-08-07T13:35:07;94547.06;;;26.86;60.98
15477;BME280;7840;42.702;23.296;2023-08-07T13:37:35;94559.50;;;27.10;58.31
15477;BME280;7840;42.702;23.296;2023-08-07T13:40:07;94557.81;;;26.17;61.86